TimeEDT,TemperatureF,Dew PointF,Humidity,Sea Level PressureIn,VisibilityMPH,Wind Direction,Wind SpeedMPH,Gust SpeedMPH,PrecipitationIn,Events,Conditions,WindDirDegrees,DateUTC
12:54 AM,62.1,53.1,72,29.94,10.0,Calm,Calm,-,N/A,,Clear,0,2013-04-11 04:54:00
1:54 AM,61.0,53.1,75,29.94,10.0,South,4.6,-,N/A,,Clear,180,2013-04-11 05:54:00
2:54 AM,62.1,53.1,72,29.91,10.0,Calm,Calm,-,N/A,,Clear,0,2013-04-11 06:54:00
3:54 AM,60.1,52.0,75,29.90,10.0,SSE,4.6,-,N/A,,Clear,150,2013-04-11 07:54:00
4:54 AM,62.1,51.1,67,29.90,10.0,SSE,6.9,-,N/A,,Clear,150,2013-04-11 08:54:00
5:54 AM,60.1,52.0,75,29.91,10.0,South,8.1,-,N/A,,Clear,190,2013-04-11 09:54:00
6:54 AM,57.9,52.0,81,29.92,10.0,South,4.6,-,N/A,,Clear,170,2013-04-11 10:54:00
7:54 AM,61.0,53.1,75,29.93,10.0,South,3.5,-,N/A,,Clear,180,2013-04-11 11:54:00
8:54 AM,61.0,54.0,78,29.94,10.0,SSE,3.5,-,N/A,,Clear,160,2013-04-11 12:54:00
9:54 AM,64.9,55.9,73,29.93,10.0,SSE,6.9,-,N/A,,Clear,160,2013-04-11 13:54:00
10:54 AM,68.0,54.0,61,29.93,10.0,SSW,9.2,-,N/A,,Partly Cloudy,200,2013-04-11 14:54:00
11:54 AM,70.0,53.1,55,29.92,10.0,SSW,17.3,28.8,N/A,,Scattered Clouds,210,2013-04-11 15:54:00
12:54 PM,71.6,51.8,50,29.95,10.0,South,16.1,25.3,N/A,,Partly Cloudy,190,2013-04-11 16:54:00
1:54 PM,73.9,51.1,45,29.86,10.0,South,18.4,29.9,N/A,,Clear,180,2013-04-11 17:54:00
2:54 PM,73.0,52.0,48,29.83,10.0,South,12.7,24.2,N/A,,Scattered Clouds,190,2013-04-11 18:54:00
3:54 PM,73.9,53.1,48,29.81,10.0,South,12.7,19.6,N/A,,Mostly Cloudy,190,2013-04-11 19:54:00
4:54 PM,73.0,54.0,51,29.77,10.0,South,13.8,-,N/A,,Mostly Cloudy,180,2013-04-11 20:54:00
5:54 PM,73.0,55.0,53,29.75,10.0,SSE,13.8,-,N/A,,Overcast,160,2013-04-11 21:54:00
6:54 PM,71.1,57.0,61,29.75,10.0,SSE,13.8,20.7,N/A,,Overcast,160,2013-04-11 22:54:00
7:54 PM,69.1,59.0,70,29.73,10.0,South,9.2,-,0.00,Rain,Light Rain,170,2013-04-11 23:54:00
8:37 PM,66.2,60.8,83,29.77,10.0,SSE,11.5,-,0.02,Rain,Light Rain,160,2013-04-12 00:37:00
8:54 PM,64.9,62.1,90,29.73,6.0,SSW,5.8,-,0.04,Rain,Heavy Rain,200,2013-04-12 00:54:00
8:55 PM,64.4,62.6,94,29.78,5.0,South,6.9,-,0.00,Rain-Thunderstorm,Thunderstorms and Rain,190,2013-04-12 00:55:00
9:40 PM,64.4,62.6,94,29.77,7.0,South,9.2,-,0.23,Rain-Thunderstorm,Thunderstorms and Rain,170,2013-04-12 01:40:00
9:51 PM,64.4,62.6,94,29.77,3.0,SSE,10.4,-,0.29,Rain,Heavy Rain,160,2013-04-12 01:51:00
9:54 PM,64.9,62.1,90,29.71,3.0,SSE,11.5,16.1,0.29,Rain,Light Rain,150,2013-04-12 01:54:00
10:07 PM,66.2,62.6,88,29.77,7.0,SSE,12.7,19.6,0.02,Rain,Rain,150,2013-04-12 02:07:00
10:54 PM,66.0,63.0,90,29.70,10.0,SSE,6.9,-,0.08,Thunderstorm,Thunderstorm,160,2013-04-12 02:54:00
11:54 PM,66.0,63.0,90,29.68,7.0,South,19.6,25.3,0.09,Rain-Thunderstorm,Thunderstorms and Rain,180,2013-04-12 03:54:00